createdAt,value
2022-08-19T00:01:30.737Z,1.60
2022-08-19T00:04:02.109Z,2.65
2022-08-19T00:06:30.755Z,1.33
2022-08-19T00:08:58.586Z,4.93
2022-08-19T00:11:28.676Z,2.28
2022-08-19T00:13:57.667Z,1.92
2022-08-19T00:16:26.857Z,1.60
2022-08-19T00:18:56.483Z,1.30
2022-08-19T00:21:25.114Z,1.90
2022-08-19T00:23:52.570Z,1.90
2022-08-19T00:26:20.278Z,1.88
2022-08-19T00:28:48.184Z,0.90
2022-08-19T00:31:17.326Z,2.05
2022-08-19T00:33:45.224Z,1.40
2022-08-19T00:36:12.704Z,1.80
2022-08-19T00:38:44.021Z,1.58
2022-08-19T00:41:14.448Z,1.35
2022-08-19T00:43:42.284Z,1.45
2022-08-19T00:46:09.763Z,1.30
2022-08-19T00:48:37.653Z,2.13
2022-08-19T00:51:06.126Z,4.53
2022-08-19T00:53:36.425Z,1.27
2022-08-19T00:56:07.275Z,0.95
2022-08-19T00:58:36.253Z,1.10
2022-08-19T01:01:05.642Z,3.22
2022-08-19T01:03:57.170Z,3.03
2022-08-19T01:06:20.838Z,1.65
2022-08-19T01:08:50.070Z,2.20
2022-08-19T01:11:18.129Z,2.13
2022-08-19T01:13:49.918Z,2.58
2022-08-19T01:16:18.546Z,1.60
2022-08-19T01:18:46.036Z,4.80
2022-08-19T01:21:16.252Z,2.50
2022-08-19T01:23:44.972Z,1.52
2022-08-19T01:26:14.983Z,6.00
2022-08-19T01:28:43.384Z,2.63
2022-08-19T01:31:27.254Z,2.85
2022-08-19T01:33:56.265Z,1.42
2022-08-19T01:36:27.241Z,1.77
2022-08-19T01:38:55.013Z,3.00
2022-08-19T01:41:24.597Z,2.08
2022-08-19T01:44:03.225Z,1.73
2022-08-19T01:46:40.839Z,1.67
2022-08-19T01:49:09.203Z,1.83
2022-08-19T01:51:39.821Z,2.25
2022-08-19T01:54:08.392Z,1.17
2022-08-19T01:56:35.903Z,1.10
2022-08-19T01:59:10.142Z,1.65
2022-08-19T02:01:37.722Z,3.70
2022-08-19T02:04:06.187Z,2.13
2022-08-19T02:06:34.217Z,2.28
2022-08-19T02:09:01.639Z,1.60
2022-08-19T02:11:32.460Z,1.05
2022-08-19T02:14:00.541Z,2.50
2022-08-19T02:16:27.923Z,0.65
2022-08-19T02:18:55.799Z,1.52
2022-08-19T02:21:24.614Z,2.72
2022-08-19T02:23:52.510Z,1.88
2022-08-19T02:26:20.357Z,1.77
2022-08-19T02:28:49.159Z,1.92
2022-08-19T02:31:19.204Z,1.25
2022-08-19T02:33:47.855Z,2.35
2022-08-19T02:36:15.973Z,1.98
2022-08-19T02:38:54.171Z,1.40
2022-08-19T02:41:27.909Z,1.23
2022-08-19T02:44:22.950Z,2.60
2022-08-19T02:46:45.850Z,2.45
2022-08-19T02:49:13.543Z,1.50
2022-08-19T02:51:42.703Z,1.73
2022-08-19T02:54:11.578Z,1.63
2022-08-19T02:56:40.164Z,1.98
2022-08-19T02:59:12.912Z,2.78
2022-08-19T03:01:42.316Z,1.05
2022-08-19T03:04:11.557Z,1.92
2022-08-19T03:06:40.139Z,1.77
2022-08-19T03:09:07.743Z,3.42
2022-08-19T03:11:35.409Z,1.80
2022-08-19T03:14:04.035Z,1.40
2022-08-19T03:16:33.835Z,5.55
2022-08-19T03:19:02.355Z,2.92
2022-08-19T03:21:31.052Z,5.10
2022-08-19T03:23:59.539Z,1.42
2022-08-19T03:26:27.025Z,2.90
2022-08-19T03:28:58.173Z,2.42
2022-08-19T03:31:43.518Z,1.30
2022-08-19T03:34:19.801Z,2.25
2022-08-19T03:36:47.550Z,1.90
2022-08-19T03:39:15.598Z,2.35
2022-08-19T03:41:45.729Z,2.25
2022-08-19T03:44:17.875Z,1.50
2022-08-19T03:46:46.637Z,1.88
2022-08-19T03:49:14.727Z,2.30
2022-08-19T03:51:42.829Z,1.40
2022-08-19T03:54:12.103Z,3.05
2022-08-19T03:56:40.201Z,1.60
2022-08-19T03:59:08.988Z,1.33
2022-08-19T04:01:36.589Z,1.48
2022-08-19T04:04:04.805Z,2.70
2022-08-19T04:06:38.764Z,1.63
2022-08-19T04:09:08.058Z,2.60
2022-08-19T04:11:43.066Z,2.90
2022-08-19T04:14:13.347Z,2.45
2022-08-19T04:16:40.881Z,1.85
2022-08-19T04:19:08.677Z,1.55
2022-08-19T04:21:36.162Z,2.60
2022-08-19T04:24:04.086Z,3.40
2022-08-19T04:26:33.709Z,3.65
2022-08-19T04:29:02.833Z,2.58
2022-08-19T04:31:36.827Z,1.42
2022-08-19T04:34:08.026Z,7.43
2022-08-19T04:36:37.699Z,1.40
2022-08-19T04:39:07.244Z,3.47
2022-08-19T04:41:53.167Z,1.70
2022-08-19T04:44:20.658Z,1.45
2022-08-19T04:46:51.201Z,1.45
2022-08-19T04:49:26.714Z,2.78
2022-08-19T04:51:55.433Z,2.22
2022-08-19T04:54:37.416Z,1.67
2022-08-19T04:57:08.189Z,2.17
2022-08-19T04:59:36.419Z,1.40
2022-08-19T05:02:04.397Z,3.67
2022-08-19T05:04:33.213Z,1.83
2022-08-19T05:07:02.108Z,1.75
2022-08-19T05:09:39.061Z,3.13
2022-08-19T05:12:18.204Z,1.92
2022-08-19T05:14:47.333Z,4.63
2022-08-19T05:17:34.865Z,2.13
2022-08-19T05:20:21.333Z,1.92
2022-08-19T05:22:49.353Z,3.13
2022-08-19T05:25:22.260Z,2.55
2022-08-19T05:27:50.225Z,3.90
2022-08-19T05:30:18.650Z,3.67
2022-08-19T05:32:52.009Z,7.38
2022-08-19T05:35:24.530Z,3.53
2022-08-19T05:37:54.956Z,2.10
2022-08-19T05:40:26.720Z,3.22
2022-08-19T05:42:54.979Z,4.00
2022-08-19T05:45:23.014Z,3.90
2022-08-19T05:47:50.456Z,2.33
2022-08-19T05:50:18.685Z,3.75
2022-08-19T05:52:50.258Z,2.03
2022-08-19T05:55:21.335Z,1.95
2022-08-19T05:57:48.855Z,1.60
2022-08-19T06:00:16.387Z,2.00
2022-08-19T06:02:43.861Z,3.15
2022-08-19T06:05:11.832Z,3.42
2022-08-19T06:07:40.388Z,3.67
2022-08-19T06:10:08.760Z,2.47
2022-08-19T06:12:36.721Z,3.85
2022-08-19T06:15:06.170Z,6.43
2022-08-19T06:17:35.885Z,3.22
2022-08-19T06:20:07.269Z,2.17
2022-08-19T06:22:39.125Z,2.42
2022-08-19T06:25:06.855Z,4.93
2022-08-19T06:27:34.846Z,4.20
2022-08-19T06:30:03.150Z,3.67
2022-08-19T06:32:31.214Z,4.10
2022-08-19T06:34:58.628Z,2.22
2022-08-19T06:37:26.118Z,1.80
2022-08-19T06:39:53.614Z,3.47
2022-08-19T06:42:21.705Z,2.75
2022-08-19T06:44:53.257Z,2.70
2022-08-19T06:47:23.439Z,2.65
2022-08-19T06:49:55.083Z,2.83
2022-08-19T06:52:28.919Z,3.85
2022-08-19T06:54:59.730Z,2.83
2022-08-19T06:57:27.813Z,3.45
2022-08-19T06:59:57.621Z,3.35
2022-08-19T07:02:27.502Z,4.38
2022-08-19T07:04:55.252Z,1.60
2022-08-19T07:07:23.246Z,2.47
2022-08-19T07:09:59.158Z,1.92
2022-08-19T07:12:29.648Z,4.53
2022-08-19T07:14:58.842Z,2.47
2022-08-19T07:17:26.388Z,2.95
2022-08-19T07:19:54.803Z,2.13
2022-08-19T07:22:24.325Z,2.00
2022-08-19T07:24:52.713Z,1.77
2022-08-19T07:27:25.159Z,2.10
2022-08-19T07:29:55.740Z,2.83
2022-08-19T07:32:24.047Z,4.83
2022-08-19T07:34:54.637Z,3.83
2022-08-19T07:37:22.179Z,2.50
2022-08-19T07:39:49.624Z,2.77
2022-08-19T07:42:21.877Z,3.57
2022-08-19T07:44:50.679Z,2.10
2022-08-19T07:47:48.376Z,3.00
2022-08-19T07:50:08.859Z,4.07
2022-08-19T07:52:38.363Z,2.87
2022-08-19T07:55:06.738Z,2.57
2022-08-19T07:57:54.588Z,3.00
2022-08-19T08:00:24.377Z,3.07
2022-08-19T08:02:52.677Z,2.87
2022-08-19T08:05:43.732Z,3.20
2022-08-19T08:08:31.050Z,4.07
2022-08-19T08:11:00.043Z,4.53
2022-08-19T08:13:28.181Z,3.17
2022-08-19T08:15:56.924Z,2.77
2022-08-19T08:18:27.686Z,2.77
2022-08-19T08:20:56.600Z,3.43
2022-08-19T08:23:26.569Z,3.80
2022-08-19T08:25:56.055Z,5.67
2022-08-19T08:28:24.143Z,2.80
2022-08-19T08:30:52.974Z,3.60
2022-08-19T08:33:33.159Z,2.33
2022-08-19T08:36:08.793Z,3.00
2022-08-19T08:38:40.969Z,2.97
2022-08-19T08:41:29.205Z,2.40
2022-08-19T08:43:58.512Z,3.27
2022-08-19T08:46:44.654Z,2.63
2022-08-19T08:49:18.252Z,7.60
2022-08-19T08:51:59.567Z,2.73
2022-08-19T08:54:31.923Z,3.40
2022-08-19T08:57:02.571Z,5.13
2022-08-19T08:59:37.780Z,2.60
2022-08-19T09:02:05.373Z,3.57
2022-08-19T09:04:32.851Z,4.47
2022-08-19T09:07:35.368Z,2.40
2022-08-19T09:10:21.469Z,2.97
2022-08-19T09:12:55.893Z,2.13
2022-08-19T09:15:33.513Z,3.47
2022-08-19T09:18:07.137Z,3.17
2022-08-19T09:20:34.992Z,3.27
2022-08-19T09:23:02.984Z,2.93
2022-08-19T09:25:31.914Z,3.23
2022-08-19T09:28:05.825Z,4.37
2022-08-19T09:30:43.436Z,3.30
2022-08-19T09:33:11.050Z,3.73
2022-08-19T09:35:53.222Z,3.40
2022-08-19T09:38:22.123Z,4.97
2022-08-19T09:40:50.172Z,2.77
2022-08-19T09:43:33.176Z,2.83
2022-08-19T09:46:02.653Z,3.07
2022-08-19T09:48:30.193Z,3.00
2022-08-19T09:51:03.793Z,3.03
2022-08-19T09:53:32.513Z,3.23
2022-08-19T09:56:01.773Z,3.73
2022-08-19T09:58:31.773Z,3.20
2022-08-19T10:01:00.470Z,4.07
2022-08-19T10:03:29.977Z,3.77
2022-08-19T10:05:58.790Z,3.90
2022-08-19T10:08:28.226Z,4.53
2022-08-19T10:10:56.285Z,3.27
2022-08-19T10:13:26.047Z,4.07
2022-08-19T10:15:57.559Z,4.67
2022-08-19T10:18:26.527Z,5.13
2022-08-19T10:20:54.672Z,3.77
2022-08-19T10:23:22.587Z,3.67
2022-08-19T10:25:50.861Z,3.37
2022-08-19T10:28:19.427Z,3.87
2022-08-19T10:30:47.617Z,3.97
2022-08-19T10:33:39.274Z,3.37
2022-08-19T10:36:05.690Z,2.70
2022-08-19T10:38:33.205Z,3.40
2022-08-19T10:41:08.008Z,2.70
2022-08-19T10:43:41.618Z,3.47
2022-08-19T10:46:16.572Z,4.20
2022-08-19T10:48:45.315Z,2.67
2022-08-19T10:51:31.903Z,2.00
2022-08-19T10:54:00.120Z,2.40
2022-08-19T10:56:46.583Z,3.80
2022-08-19T10:59:15.225Z,1.63
2022-08-19T11:01:43.824Z,1.77
2022-08-19T11:04:12.311Z,1.70
2022-08-19T11:06:39.724Z,1.40
2022-08-19T11:09:07.138Z,1.00
2022-08-19T11:11:42.011Z,2.03
2022-08-19T11:14:10.642Z,1.77
2022-08-19T11:16:40.172Z,1.20
2022-08-19T11:19:09.159Z,1.93
2022-08-19T11:21:38.496Z,1.20
2022-08-19T11:24:07.533Z,1.00
2022-08-19T11:26:35.435Z,1.63
2022-08-19T11:29:03.912Z,1.63
2022-08-19T11:31:33.391Z,2.00
2022-08-19T11:34:02.606Z,1.87
2022-08-19T11:36:30.157Z,3.87
2022-08-19T11:38:57.603Z,1.90
2022-08-19T11:41:25.219Z,3.53
2022-08-19T11:43:56.403Z,1.30
2022-08-19T11:46:25.092Z,1.40
2022-08-19T11:48:53.229Z,1.60
2022-08-19T11:51:22.982Z,1.47
2022-08-19T11:53:51.783Z,2.37
2022-08-19T11:56:19.839Z,1.47
2022-08-19T11:58:48.046Z,2.50
2022-08-19T12:01:17.143Z,1.10
2022-08-19T12:03:46.124Z,1.80
2022-08-19T12:06:15.614Z,4.43
2022-08-19T12:08:44.783Z,3.20
2022-08-19T12:11:14.674Z,1.37
2022-08-19T12:13:45.993Z,1.00
2022-08-19T12:16:16.026Z,1.40
2022-08-19T12:18:47.507Z,1.20
2022-08-19T12:21:15.723Z,1.90
2022-08-19T12:23:43.722Z,1.17
2022-08-19T12:26:14.070Z,2.60
2022-08-19T12:28:42.498Z,2.10
2022-08-19T12:31:10.267Z,1.20
2022-08-19T12:33:37.715Z,1.20
2022-08-19T12:36:06.518Z,1.30
2022-08-19T12:38:35.644Z,1.20
2022-08-19T12:41:07.463Z,0.90
2022-08-19T12:43:36.083Z,1.42
2022-08-19T12:46:05.266Z,1.73
2022-08-19T12:48:35.058Z,1.52
2022-08-19T12:51:07.355Z,2.38
2022-08-19T12:53:34.732Z,3.08
2022-08-19T12:56:08.967Z,1.60
2022-08-19T12:58:40.304Z,2.55
2022-08-19T13:01:08.559Z,1.50
2022-08-19T13:03:40.351Z,1.73
2022-08-19T13:06:09.553Z,2.25
2022-08-19T13:08:37.607Z,3.72
2022-08-19T13:11:12.804Z,2.83
2022-08-19T13:13:44.079Z,2.88
2022-08-19T13:16:12.677Z,2.30
2022-08-19T13:18:40.864Z,4.50
2022-08-19T13:21:09.693Z,1.98
2022-08-19T13:23:37.667Z,3.22
2022-08-19T13:26:07.059Z,2.72
2022-08-19T13:28:53.534Z,4.55
2022-08-19T13:31:40.403Z,2.17
2022-08-19T13:34:08.208Z,2.22
2022-08-19T13:36:35.957Z,3.35
2022-08-19T13:39:03.453Z,3.28
2022-08-19T13:41:31.498Z,2.53
2022-08-19T13:43:59.192Z,2.97
2022-08-19T13:46:28.391Z,4.18
2022-08-19T13:48:55.943Z,2.22
2022-08-19T13:51:23.611Z,2.95
2022-08-19T13:53:51.697Z,2.20
2022-08-19T13:56:25.403Z,2.38
2022-08-19T13:58:54.488Z,2.47
2022-08-19T14:01:25.669Z,2.95
2022-08-19T14:03:53.777Z,2.30
2022-08-19T14:06:22.402Z,2.20
2022-08-19T14:08:49.913Z,2.60
2022-08-19T14:11:17.978Z,2.75
2022-08-19T14:13:45.505Z,2.83
2022-08-19T14:16:13.819Z,3.63
2022-08-19T14:18:41.473Z,3.25
2022-08-19T14:21:09.128Z,2.22
2022-08-19T14:23:37.329Z,2.50
2022-08-19T14:26:05.694Z,2.90
2022-08-19T14:28:33.123Z,2.28
2022-08-19T14:31:00.503Z,2.80
2022-08-19T14:33:28.522Z,3.38
2022-08-19T14:35:59.927Z,2.72
2022-08-19T14:38:31.384Z,2.20
2022-08-19T14:41:20.293Z,2.22
2022-08-19T14:43:49.259Z,1.85
2022-08-19T14:46:17.337Z,2.33
2022-08-19T14:48:45.455Z,3.53
2022-08-19T14:51:12.897Z,2.25
2022-08-19T14:53:40.342Z,5.20
2022-08-19T14:56:11.495Z,2.88
2022-08-19T14:58:39.301Z,2.35
2022-08-19T15:01:06.844Z,4.18
2022-08-19T15:03:34.632Z,3.10
2022-08-19T15:06:03.121Z,2.97
2022-08-19T15:08:32.154Z,2.42
2022-08-19T15:11:00.413Z,2.15
2022-08-19T15:13:28.873Z,1.63
2022-08-19T15:15:56.826Z,2.38
2022-08-19T15:18:24.765Z,1.65
2022-08-19T15:20:52.299Z,3.35
2022-08-19T15:23:20.642Z,2.00
2022-08-19T15:25:48.152Z,4.18
2022-08-19T15:28:17.403Z,3.92
2022-08-19T15:30:44.732Z,9.18
2022-08-19T15:33:15.354Z,5.22
2022-08-19T15:35:46.513Z,5.35
2022-08-19T15:38:22.098Z,4.72
2022-08-19T15:40:50.535Z,6.50
2022-08-19T15:43:18.975Z,4.80
2022-08-19T15:45:49.424Z,7.28
2022-08-19T15:48:17.158Z,5.00
2022-08-19T15:50:44.654Z,4.18
2022-08-19T15:53:12.440Z,5.13
2022-08-19T15:55:44.167Z,4.80
2022-08-19T15:58:33.581Z,4.88
2022-08-19T16:01:21.596Z,8.05
2022-08-19T16:04:10.991Z,4.00
2022-08-19T16:06:43.654Z,4.68
2022-08-19T16:09:11.460Z,4.30
2022-08-19T16:11:39.568Z,4.25
2022-08-19T16:14:09.587Z,6.18
2022-08-19T16:16:37.989Z,3.75
2022-08-19T16:19:10.266Z,4.40
2022-08-19T16:21:41.571Z,4.20
2022-08-19T16:24:10.394Z,4.50
2022-08-19T16:26:37.806Z,4.97
2022-08-19T16:29:08.831Z,4.60
2022-08-19T16:31:36.764Z,4.38
2022-08-19T16:34:04.989Z,4.18
2022-08-19T16:36:33.872Z,5.20
2022-08-19T16:39:01.720Z,5.18
2022-08-19T16:41:29.648Z,5.65
2022-08-19T16:43:57.182Z,4.95
2022-08-19T16:46:27.101Z,5.72
2022-08-19T16:48:55.022Z,4.35
2022-08-19T16:51:23.010Z,5.38
2022-08-19T16:53:53.090Z,4.35
2022-08-19T16:56:21.392Z,5.25
2022-08-19T16:58:50.593Z,4.93
2022-08-19T17:01:18.569Z,4.65
2022-08-19T17:03:49.481Z,4.43
2022-08-19T17:06:20.587Z,4.95
2022-08-19T17:08:51.885Z,4.88
2022-08-19T17:11:21.523Z,4.00
2022-08-19T17:13:51.126Z,3.72
2022-08-19T17:16:25.099Z,4.40
2022-08-19T17:18:53.214Z,6.40
2022-08-19T17:21:21.409Z,4.65
2022-08-19T17:23:51.965Z,3.80
2022-08-19T17:26:19.449Z,4.43
2022-08-19T17:28:49.908Z,6.53
2022-08-19T17:31:18.650Z,5.93
2022-08-19T17:33:48.203Z,4.55
2022-08-19T17:36:17.124Z,3.85
2022-08-19T17:38:44.632Z,4.38
2022-08-19T17:41:12.035Z,3.45
2022-08-19T17:43:43.306Z,3.88
2022-08-19T17:46:17.806Z,4.07
2022-08-19T17:48:51.754Z,4.72
2022-08-19T17:51:25.125Z,5.18
2022-08-19T17:53:54.013Z,5.05
2022-08-19T17:56:22.205Z,5.32
2022-08-19T17:58:59.571Z,4.07
2022-08-19T18:01:30.746Z,4.20
2022-08-19T18:04:17.352Z,4.18
2022-08-19T18:06:46.053Z,4.53
2022-08-19T18:09:20.992Z,7.55
2022-08-19T18:11:55.464Z,4.25
2022-08-19T18:14:32.209Z,4.38
2022-08-19T18:17:02.025Z,4.85
2022-08-19T18:19:40.882Z,4.38
2022-08-19T18:22:30.810Z,4.13
2022-08-19T18:24:58.956Z,4.55
2022-08-19T18:27:27.825Z,4.28
2022-08-19T18:29:59.761Z,4.68
2022-08-19T18:32:30.727Z,4.70
2022-08-19T18:34:58.630Z,4.43
2022-08-19T18:37:26.801Z,6.50
2022-08-19T18:40:13.293Z,4.30
2022-08-19T18:43:22.545Z,4.38
2022-08-19T18:46:09.132Z,3.85
2022-08-19T18:48:56.407Z,5.80
2022-08-19T18:51:28.140Z,4.07
2022-08-19T18:53:58.888Z,5.93
2022-08-19T18:56:31.889Z,5.32
2022-08-19T18:59:00.275Z,5.85
2022-08-19T19:01:34.524Z,4.45
2022-08-19T19:04:03.494Z,4.68
2022-08-19T19:06:35.942Z,4.18
2022-08-19T19:09:03.528Z,5.15
2022-08-19T19:11:36.403Z,4.40
2022-08-19T19:14:05.783Z,4.82
2022-08-19T19:16:33.640Z,4.10
2022-08-19T19:19:01.136Z,3.50
2022-08-19T19:21:31.938Z,7.82
2022-08-19T19:24:02.144Z,5.15
2022-08-19T19:26:30.073Z,5.25
2022-08-19T19:28:57.622Z,7.03
2022-08-19T19:31:26.870Z,3.97
2022-08-19T19:33:55.813Z,5.07
2022-08-19T19:36:24.243Z,4.40
2022-08-19T19:38:51.859Z,3.30
2022-08-19T19:41:24.717Z,5.00
2022-08-19T19:44:16.402Z,3.92
2022-08-19T19:46:43.607Z,8.15
2022-08-19T19:49:11.814Z,3.40
2022-08-19T19:51:39.603Z,4.35
2022-08-19T19:54:09.633Z,3.33
2022-08-19T19:56:37.078Z,3.88
2022-08-19T19:59:04.520Z,4.80
2022-08-19T20:01:32.125Z,3.85
2022-08-19T20:04:01.679Z,4.32
2022-08-19T20:06:29.892Z,4.32
2022-08-19T20:09:17.551Z,4.97
2022-08-19T20:11:54.734Z,5.43
2022-08-19T20:14:27.182Z,7.30
2022-08-19T20:16:55.586Z,4.85
2022-08-19T20:19:26.204Z,4.40
2022-08-19T20:21:54.859Z,5.13
2022-08-19T20:24:23.945Z,5.13
2022-08-19T20:26:53.399Z,6.18
2022-08-19T20:29:38.471Z,5.20
2022-08-19T20:32:08.441Z,6.55
2022-08-19T20:34:37.357Z,4.07
2022-08-19T20:37:04.943Z,6.97
2022-08-19T20:39:32.485Z,4.38
2022-08-19T20:42:00.792Z,4.93
2022-08-19T20:44:28.244Z,4.85
2022-08-19T20:46:57.653Z,6.80
2022-08-19T20:49:28.208Z,5.15
2022-08-19T20:51:57.129Z,7.28
2022-08-19T20:54:24.604Z,7.43
2022-08-19T20:56:53.008Z,5.40
2022-08-19T20:59:20.983Z,6.85
2022-08-19T21:01:51.787Z,5.65
2022-08-19T21:04:19.613Z,8.30
2022-08-19T21:06:47.083Z,6.63
2022-08-19T21:09:14.924Z,6.35
2022-08-19T21:11:42.543Z,7.13
2022-08-19T21:14:09.951Z,5.28
2022-08-19T21:16:37.418Z,5.85
2022-08-19T21:19:05.063Z,7.32
2022-08-19T21:21:33.332Z,6.00
2022-08-19T21:24:01.444Z,5.95
2022-08-19T21:26:28.839Z,5.32
2022-08-19T21:28:56.333Z,6.30
2022-08-19T21:31:23.791Z,6.60
2022-08-19T21:33:51.245Z,6.50
2022-08-19T21:36:18.753Z,7.35
2022-08-19T21:38:46.199Z,7.50
2022-08-19T21:41:13.848Z,5.88
2022-08-19T21:43:41.346Z,6.80
2022-08-19T21:46:09.199Z,7.80
2022-08-19T21:48:36.938Z,6.55
2022-08-19T21:51:04.393Z,8.45
2022-08-19T21:53:34.635Z,6.55
2022-08-19T21:56:03.183Z,6.25
2022-08-19T21:58:30.985Z,5.95
2022-08-19T22:01:05.971Z,6.25
2022-08-19T22:03:34.245Z,6.65
2022-08-19T22:06:01.665Z,7.35
2022-08-19T22:08:29.896Z,9.13
2022-08-19T22:10:59.253Z,7.57
2022-08-19T22:13:27.197Z,7.43
2022-08-19T22:15:57.592Z,6.45
2022-08-19T22:18:25.085Z,6.72
2022-08-19T22:20:52.568Z,7.07
2022-08-19T22:23:19.967Z,7.40
2022-08-19T22:25:47.830Z,7.40
2022-08-19T22:28:18.707Z,6.60
2022-08-19T22:30:48.899Z,7.72
2022-08-19T22:33:20.777Z,7.95
2022-08-19T22:35:48.690Z,8.02
2022-08-19T22:38:16.894Z,7.05
2022-08-19T22:40:47.426Z,9.48
2022-08-19T22:43:16.834Z,9.35
2022-08-19T22:45:44.656Z,7.72
2022-08-19T22:48:13.277Z,7.40
2022-08-19T22:50:41.270Z,7.75
2022-08-19T22:53:09.420Z,8.60
2022-08-19T22:55:38.171Z,7.30
2022-08-19T22:58:06.348Z,9.68
2022-08-19T23:00:33.978Z,7.60
2022-08-19T23:03:02.357Z,7.53
2022-08-19T23:05:30.442Z,7.90
2022-08-19T23:08:00.175Z,10.05
2022-08-19T23:10:29.224Z,8.38
2022-08-19T23:13:00.619Z,7.47
2022-08-19T23:15:29.922Z,8.20
2022-08-19T23:18:00.404Z,8.15
2022-08-19T23:20:29.709Z,7.78
2022-08-19T23:22:57.312Z,8.45
2022-08-19T23:25:26.363Z,8.05
2022-08-19T23:28:12.390Z,8.00
2022-08-19T23:30:42.665Z,7.80
2022-08-19T23:33:18.595Z,7.45
2022-08-19T23:35:46.012Z,7.65
2022-08-19T23:38:13.512Z,6.97
2022-08-19T23:40:41.182Z,10.07
2022-08-19T23:43:09.792Z,8.20
2022-08-19T23:45:40.800Z,8.57
2022-08-19T23:48:19.040Z,7.25
2022-08-19T23:50:47.115Z,8.00
2022-08-19T23:53:15.274Z,8.27
2022-08-19T23:55:44.984Z,7.30
2022-08-19T23:58:13.823Z,7.97
